sensor_id;sensor_type;location;lat;lon;timestamp;temperature;humidity
16305;DHT22;8261;47.678;-122.174;2023-07-22T00:01:03;27.50;99.90
16305;DHT22;8261;47.678;-122.174;2023-07-22T00:03:34;27.50;99.90
16305;DHT22;8261;47.678;-122.174;2023-07-22T00:06:05;27.70;99.90
16305;DHT22;8261;47.678;-122.174;2023-07-22T00:08:37;27.00;99.90
16305;DHT22;8261;47.678;-122.174;2023-07-22T00:11:08;27.20;99.90
16305;DHT22;8261;47.678;-122.174;2023-07-22T00:13:41;27.50;99.90
16305;DHT22;8261;47.678;-122.174;2023-07-22T00:16:12;27.50;99.90
16305;DHT22;8261;47.678;-122.174;2023-07-22T00:18:43;27.60;99.90
16305;DHT22;8261;47.678;-122.174;2023-07-22T00:21:14;27.70;99.90
16305;DHT22;8261;47.678;-122.174;2023-07-22T00:23:44;27.80;99.90
16305;DHT22;8261;47.678;-122.174;2023-07-22T00:26:16;27.30;99.90
16305;DHT22;8261;47.678;-122.174;2023-07-22T00:28:48;27.40;99.90
16305;DHT22;8261;47.678;-122.174;2023-07-22T00:31:19;27.30;99.90
16305;DHT22;8261;47.678;-122.174;2023-07-22T00:33:50;27.60;99.90
16305;DHT22;8261;47.678;-122.174;2023-07-22T00:36:21;27.60;99.90
16305;DHT22;8261;47.678;-122.174;2023-07-22T00:38:52;27.70;99.90
16305;DHT22;8261;47.678;-122.174;2023-07-22T00:41:23;27.80;99.90
16305;DHT22;8261;47.678;-122.174;2023-07-22T00:43:56;27.80;99.90
16305;DHT22;8261;47.678;-122.174;2023-07-22T00:46:26;27.90;99.90
16305;DHT22;8261;47.678;-122.174;2023-07-22T00:48:58;27.60;99.90
16305;DHT22;8261;47.678;-122.174;2023-07-22T00:51:28;27.50;99.90
16305;DHT22;8261;47.678;-122.174;2023-07-22T00:53:59;27.40;99.90
16305;DHT22;8261;47.678;-122.174;2023-07-22T00:56:32;27.40;99.90
16305;DHT22;8261;47.678;-122.174;2023-07-22T00:59:05;27.50;99.90
16305;DHT22;8261;47.678;-122.174;2023-07-22T01:01:36;27.70;99.90
16305;DHT22;8261;47.678;-122.174;2023-07-22T01:04:07;27.60;99.90
16305;DHT22;8261;47.678;-122.174;2023-07-22T01:06:39;27.80;99.90
16305;DHT22;8261;47.678;-122.174;2023-07-22T01:09:10;28.40;99.90
16305;DHT22;8261;47.678;-122.174;2023-07-22T01:11:42;28.50;99.90
16305;DHT22;8261;47.678;-122.174;2023-07-22T01:14:14;29.10;99.90
16305;DHT22;8261;47.678;-122.174;2023-07-22T01:16:45;29.60;99.90
16305;DHT22;8261;47.678;-122.174;2023-07-22T01:19:18;29.90;99.90
16305;DHT22;8261;47.678;-122.174;2023-07-22T01:21:49;30.00;99.90
16305;DHT22;8261;47.678;-122.174;2023-07-22T01:24:22;30.10;99.90
16305;DHT22;8261;47.678;-122.174;2023-07-22T01:26:53;29.90;99.90
16305;DHT22;8261;47.678;-122.174;2023-07-22T01:29:24;30.10;99.90
16305;DHT22;8261;47.678;-122.174;2023-07-22T01:31:55;30.10;99.90
16305;DHT22;8261;47.678;-122.174;2023-07-22T01:34:26;30.50;99.90
16305;DHT22;8261;47.678;-122.174;2023-07-22T01:36:58;30.20;99.90
16305;DHT22;8261;47.678;-122.174;2023-07-22T01:39:31;30.50;99.90
16305;DHT22;8261;47.678;-122.174;2023-07-22T01:42:01;30.40;99.90
16305;DHT22;8261;47.678;-122.174;2023-07-22T01:44:32;30.10;99.90
16305;DHT22;8261;47.678;-122.174;2023-07-22T01:47:03;30.40;99.90
16305;DHT22;8261;47.678;-122.174;2023-07-22T01:49:34;30.70;99.90
16305;DHT22;8261;47.678;-122.174;2023-07-22T01:52:06;30.80;99.90
16305;DHT22;8261;47.678;-122.174;2023-07-22T01:54:39;30.50;99.90
16305;DHT22;8261;47.678;-122.174;2023-07-22T01:57:09;30.00;99.90
16305;DHT22;8261;47.678;-122.174;2023-07-22T01:59:40;29.50;99.90
16305;DHT22;8261;47.678;-122.174;2023-07-22T02:02:11;28.90;99.90
16305;DHT22;8261;47.678;-122.174;2023-07-22T02:04:42;28.30;99.90
16305;DHT22;8261;47.678;-122.174;2023-07-22T02:07:13;27.50;99.90
16305;DHT22;8261;47.678;-122.174;2023-07-22T02:09:45;27.40;99.90
16305;DHT22;8261;47.678;-122.174;2023-07-22T02:12:17;27.30;99.90
16305;DHT22;8261;47.678;-122.174;2023-07-22T02:14:48;27.30;99.90
16305;DHT22;8261;47.678;-122.174;2023-07-22T02:17:19;27.10;99.90
16305;DHT22;8261;47.678;-122.174;2023-07-22T02:19:50;26.80;99.90
16305;DHT22;8261;47.678;-122.174;2023-07-22T02:22:21;26.40;99.90
16305;DHT22;8261;47.678;-122.174;2023-07-22T02:24:53;26.30;99.90
16305;DHT22;8261;47.678;-122.174;2023-07-22T02:27:24;26.00;99.90
16305;DHT22;8261;47.678;-122.174;2023-07-22T02:29:55;25.90;99.90
16305;DHT22;8261;47.678;-122.174;2023-07-22T02:32:26;25.70;99.90
16305;DHT22;8261;47.678;-122.174;2023-07-22T02:34:56;25.40;99.90
16305;DHT22;8261;47.678;-122.174;2023-07-22T02:37:27;25.20;99.90
16305;DHT22;8261;47.678;-122.174;2023-07-22T02:40:00;25.10;99.90
16305;DHT22;8261;47.678;-122.174;2023-07-22T02:42:36;25.10;99.90
16305;DHT22;8261;47.678;-122.174;2023-07-22T02:45:08;24.90;99.90
16305;DHT22;8261;47.678;-122.174;2023-07-22T02:47:38;24.80;99.90
16305;DHT22;8261;47.678;-122.174;2023-07-22T02:50:10;24.80;99.90
16305;DHT22;8261;47.678;-122.174;2023-07-22T02:52:40;24.70;99.90
16305;DHT22;8261;47.678;-122.174;2023-07-22T02:55:14;24.70;99.90
16305;DHT22;8261;47.678;-122.174;2023-07-22T02:57:47;24.50;99.90
16305;DHT22;8261;47.678;-122.174;2023-07-22T03:00:19;24.50;99.90
16305;DHT22;8261;47.678;-122.174;2023-07-22T03:02:52;24.40;99.90
16305;DHT22;8261;47.678;-122.174;2023-07-22T03:05:26;24.30;99.90
16305;DHT22;8261;47.678;-122.174;2023-07-22T03:07:57;24.30;99.90
16305;DHT22;8261;47.678;-122.174;2023-07-22T03:10:30;24.20;99.90
16305;DHT22;8261;47.678;-122.174;2023-07-22T03:13:01;24.10;99.90
16305;DHT22;8261;47.678;-122.174;2023-07-22T03:15:32;24.00;99.90
16305;DHT22;8261;47.678;-122.174;2023-07-22T03:18:03;24.00;99.90
16305;DHT22;8261;47.678;-122.174;2023-07-22T03:20:35;24.00;99.90
16305;DHT22;8261;47.678;-122.174;2023-07-22T03:23:06;24.00;99.90
16305;DHT22;8261;47.678;-122.174;2023-07-22T03:25:39;23.90;99.90
16305;DHT22;8261;47.678;-122.174;2023-07-22T03:28:11;23.80;99.90
16305;DHT22;8261;47.678;-122.174;2023-07-22T03:30:42;23.70;99.90
16305;DHT22;8261;47.678;-122.174;2023-07-22T03:33:13;23.60;99.90
16305;DHT22;8261;47.678;-122.174;2023-07-22T03:35:43;23.50;99.90
16305;DHT22;8261;47.678;-122.174;2023-07-22T03:38:14;23.40;99.90
16305;DHT22;8261;47.678;-122.174;2023-07-22T03:40:47;23.30;99.90
16305;DHT22;8261;47.678;-122.174;2023-07-22T03:43:18;23.20;99.90
16305;DHT22;8261;47.678;-122.174;2023-07-22T03:45:48;23.10;99.90
16305;DHT22;8261;47.678;-122.174;2023-07-22T03:48:19;23.00;99.90
16305;DHT22;8261;47.678;-122.174;2023-07-22T03:50:50;22.90;99.90
16305;DHT22;8261;47.678;-122.174;2023-07-22T03:53:35;22.80;99.90
16305;DHT22;8261;47.678;-122.174;2023-07-22T03:56:07;22.70;99.90
16305;DHT22;8261;47.678;-122.174;2023-07-22T03:58:38;22.70;99.90
16305;DHT22;8261;47.678;-122.174;2023-07-22T04:01:11;22.60;99.90
16305;DHT22;8261;47.678;-122.174;2023-07-22T04:03:42;22.50;99.90
16305;DHT22;8261;47.678;-122.174;2023-07-22T04:06:13;22.40;99.90
16305;DHT22;8261;47.678;-122.174;2023-07-22T04:08:44;22.20;99.90
16305;DHT22;8261;47.678;-122.174;2023-07-22T04:11:16;22.20;99.90
16305;DHT22;8261;47.678;-122.174;2023-07-22T04:13:47;22.10;99.90
16305;DHT22;8261;47.678;-122.174;2023-07-22T04:16:18;22.00;99.90
16305;DHT22;8261;47.678;-122.174;2023-07-22T04:18:49;21.90;99.90
16305;DHT22;8261;47.678;-122.174;2023-07-22T04:21:19;21.80;99.90
16305;DHT22;8261;47.678;-122.174;2023-07-22T04:23:50;21.70;99.90
16305;DHT22;8261;47.678;-122.174;2023-07-22T04:26:23;21.70;99.90
16305;DHT22;8261;47.678;-122.174;2023-07-22T04:28:55;21.70;99.90
16305;DHT22;8261;47.678;-122.174;2023-07-22T04:31:26;21.60;99.90
16305;DHT22;8261;47.678;-122.174;2023-07-22T04:33:58;21.50;99.90
16305;DHT22;8261;47.678;-122.174;2023-07-22T04:36:29;21.40;99.90
16305;DHT22;8261;47.678;-122.174;2023-07-22T04:39:00;21.40;99.90
16305;DHT22;8261;47.678;-122.174;2023-07-22T04:41:35;21.40;99.90
16305;DHT22;8261;47.678;-122.174;2023-07-22T04:44:06;21.30;99.90
16305;DHT22;8261;47.678;-122.174;2023-07-22T04:46:36;21.20;99.90
16305;DHT22;8261;47.678;-122.174;2023-07-22T04:49:07;21.10;99.90
16305;DHT22;8261;47.678;-122.174;2023-07-22T04:51:38;21.00;99.90
16305;DHT22;8261;47.678;-122.174;2023-07-22T04:54:09;20.90;99.90
16305;DHT22;8261;47.678;-122.174;2023-07-22T04:56:42;20.90;99.90
16305;DHT22;8261;47.678;-122.174;2023-07-22T04:59:12;20.80;99.90
16305;DHT22;8261;47.678;-122.174;2023-07-22T05:01:44;20.80;99.90
16305;DHT22;8261;47.678;-122.174;2023-07-22T05:04:14;20.70;99.90
16305;DHT22;8261;47.678;-122.174;2023-07-22T05:06:45;20.60;99.90
16305;DHT22;8261;47.678;-122.174;2023-07-22T05:09:16;20.60;99.90
16305;DHT22;8261;47.678;-122.174;2023-07-22T05:11:48;20.50;99.90
16305;DHT22;8261;47.678;-122.174;2023-07-22T05:14:20;20.50;99.90
16305;DHT22;8261;47.678;-122.174;2023-07-22T05:16:50;20.40;99.90
16305;DHT22;8261;47.678;-122.174;2023-07-22T05:19:21;20.30;99.90
16305;DHT22;8261;47.678;-122.174;2023-07-22T05:21:52;20.20;99.90
16305;DHT22;8261;47.678;-122.174;2023-07-22T05:24:23;20.10;99.90
16305;DHT22;8261;47.678;-122.174;2023-07-22T05:26:55;20.00;99.90
16305;DHT22;8261;47.678;-122.174;2023-07-22T05:29:36;19.90;99.90
16305;DHT22;8261;47.678;-122.174;2023-07-22T05:32:08;19.90;99.90
16305;DHT22;8261;47.678;-122.174;2023-07-22T05:34:58;19.90;99.90
16305;DHT22;8261;47.678;-122.174;2023-07-22T05:37:30;19.80;99.90
16305;DHT22;8261;47.678;-122.174;2023-07-22T05:40:01;19.70;99.90
16305;DHT22;8261;47.678;-122.174;2023-07-22T05:42:33;19.70;99.90
16305;DHT22;8261;47.678;-122.174;2023-07-22T05:45:04;19.60;99.90
16305;DHT22;8261;47.678;-122.174;2023-07-22T05:47:36;19.60;99.90
16305;DHT22;8261;47.678;-122.174;2023-07-22T05:50:07;19.60;99.90
16305;DHT22;8261;47.678;-122.174;2023-07-22T05:52:38;19.60;99.90
16305;DHT22;8261;47.678;-122.174;2023-07-22T05:55:09;19.50;99.90
16305;DHT22;8261;47.678;-122.174;2023-07-22T05:57:42;19.40;99.90
16305;DHT22;8261;47.678;-122.174;2023-07-22T06:00:13;19.30;99.90
16305;DHT22;8261;47.678;-122.174;2023-07-22T06:02:44;19.30;99.90
16305;DHT22;8261;47.678;-122.174;2023-07-22T06:05:15;19.20;99.90
16305;DHT22;8261;47.678;-122.174;2023-07-22T06:07:46;19.20;99.90
16305;DHT22;8261;47.678;-122.174;2023-07-22T06:10:17;19.10;99.90
16305;DHT22;8261;47.678;-122.174;2023-07-22T06:12:49;19.00;99.90
16305;DHT22;8261;47.678;-122.174;2023-07-22T06:15:20;19.00;99.90
16305;DHT22;8261;47.678;-122.174;2023-07-22T06:17:51;18.90;99.90
16305;DHT22;8261;47.678;-122.174;2023-07-22T06:20:22;18.90;99.90
16305;DHT22;8261;47.678;-122.174;2023-07-22T06:22:53;18.80;99.90
16305;DHT22;8261;47.678;-122.174;2023-07-22T06:25:25;18.80;99.90
16305;DHT22;8261;47.678;-122.174;2023-07-22T06:27:57;18.80;99.90
16305;DHT22;8261;47.678;-122.174;2023-07-22T06:30:28;18.80;99.90
16305;DHT22;8261;47.678;-122.174;2023-07-22T06:32:59;18.80;99.90
16305;DHT22;8261;47.678;-122.174;2023-07-22T06:35:29;18.70;99.90
16305;DHT22;8261;47.678;-122.174;2023-07-22T06:38:00;18.70;99.90
16305;DHT22;8261;47.678;-122.174;2023-07-22T06:40:31;18.60;99.90
16305;DHT22;8261;47.678;-122.174;2023-07-22T06:43:04;18.60;99.90
16305;DHT22;8261;47.678;-122.174;2023-07-22T06:45:35;18.60;99.90
16305;DHT22;8261;47.678;-122.174;2023-07-22T06:48:06;18.60;99.90
16305;DHT22;8261;47.678;-122.174;2023-07-22T06:50:36;18.60;99.90
16305;DHT22;8261;47.678;-122.174;2023-07-22T06:53:07;18.60;99.90
16305;DHT22;8261;47.678;-122.174;2023-07-22T06:55:39;18.70;99.90
16305;DHT22;8261;47.678;-122.174;2023-07-22T06:58:12;18.60;99.90
16305;DHT22;8261;47.678;-122.174;2023-07-22T07:00:43;18.60;99.90
16305;DHT22;8261;47.678;-122.174;2023-07-22T07:03:13;18.50;99.90
16305;DHT22;8261;47.678;-122.174;2023-07-22T07:05:44;18.50;99.90
16305;DHT22;8261;47.678;-122.174;2023-07-22T07:08:15;18.40;99.90
16305;DHT22;8261;47.678;-122.174;2023-07-22T07:10:46;18.40;99.90
16305;DHT22;8261;47.678;-122.174;2023-07-22T07:13:18;18.30;99.90
16305;DHT22;8261;47.678;-122.174;2023-07-22T07:15:49;18.20;99.90
16305;DHT22;8261;47.678;-122.174;2023-07-22T07:18:20;18.20;99.90
16305;DHT22;8261;47.678;-122.174;2023-07-22T07:20:51;18.10;99.90
16305;DHT22;8261;47.678;-122.174;2023-07-22T07:23:22;18.10;99.90
16305;DHT22;8261;47.678;-122.174;2023-07-22T07:25:53;18.00;99.90
16305;DHT22;8261;47.678;-122.174;2023-07-22T07:28:25;17.90;99.90
16305;DHT22;8261;47.678;-122.174;2023-07-22T07:30:56;17.90;99.90
16305;DHT22;8261;47.678;-122.174;2023-07-22T07:33:27;17.80;99.90
16305;DHT22;8261;47.678;-122.174;2023-07-22T07:35:59;17.80;99.90
16305;DHT22;8261;47.678;-122.174;2023-07-22T07:38:30;17.80;99.90
16305;DHT22;8261;47.678;-122.174;2023-07-22T07:41:02;17.70;99.90
16305;DHT22;8261;47.678;-122.174;2023-07-22T07:43:34;17.60;99.90
16305;DHT22;8261;47.678;-122.174;2023-07-22T07:46:18;17.60;99.90
16305;DHT22;8261;47.678;-122.174;2023-07-22T07:48:52;17.50;99.90
16305;DHT22;8261;47.678;-122.174;2023-07-22T07:51:24;17.40;99.90
16305;DHT22;8261;47.678;-122.174;2023-07-22T07:53:56;17.40;99.90
16305;DHT22;8261;47.678;-122.174;2023-07-22T07:56:27;17.30;99.90
16305;DHT22;8261;47.678;-122.174;2023-07-22T07:59:00;17.30;99.90
16305;DHT22;8261;47.678;-122.174;2023-07-22T08:01:31;17.30;99.90
16305;DHT22;8261;47.678;-122.174;2023-07-22T08:04:02;17.30;99.90
16305;DHT22;8261;47.678;-122.174;2023-07-22T08:06:33;17.30;99.90
16305;DHT22;8261;47.678;-122.174;2023-07-22T08:09:05;17.30;99.90
16305;DHT22;8261;47.678;-122.174;2023-07-22T08:11:36;17.30;99.90
16305;DHT22;8261;47.678;-122.174;2023-07-22T08:14:09;17.30;99.90
16305;DHT22;8261;47.678;-122.174;2023-07-22T08:16:39;17.30;99.90
16305;DHT22;8261;47.678;-122.174;2023-07-22T08:19:10;17.20;99.90
16305;DHT22;8261;47.678;-122.174;2023-07-22T08:21:41;17.10;99.90
16305;DHT22;8261;47.678;-122.174;2023-07-22T08:24:12;17.10;99.90
16305;DHT22;8261;47.678;-122.174;2023-07-22T08:26:43;17.00;99.90
16305;DHT22;8261;47.678;-122.174;2023-07-22T08:29:15;17.00;99.90
16305;DHT22;8261;47.678;-122.174;2023-07-22T08:31:46;17.10;99.90
16305;DHT22;8261;47.678;-122.174;2023-07-22T08:34:17;17.10;99.90
16305;DHT22;8261;47.678;-122.174;2023-07-22T08:36:50;17.00;99.90
16305;DHT22;8261;47.678;-122.174;2023-07-22T08:39:21;17.00;99.90
16305;DHT22;8261;47.678;-122.174;2023-07-22T08:41:52;17.10;99.90
16305;DHT22;8261;47.678;-122.174;2023-07-22T08:44:31;17.00;99.90
16305;DHT22;8261;47.678;-122.174;2023-07-22T08:47:05;17.00;99.90
16305;DHT22;8261;47.678;-122.174;2023-07-22T08:49:41;17.00;99.90
16305;DHT22;8261;47.678;-122.174;2023-07-22T08:52:16;16.90;99.90
16305;DHT22;8261;47.678;-122.174;2023-07-22T08:54:47;16.80;99.90
16305;DHT22;8261;47.678;-122.174;2023-07-22T08:57:20;16.70;99.90
16305;DHT22;8261;47.678;-122.174;2023-07-22T08:59:52;16.70;99.90
16305;DHT22;8261;47.678;-122.174;2023-07-22T09:02:24;16.70;99.90
16305;DHT22;8261;47.678;-122.174;2023-07-22T09:04:55;16.60;99.90
16305;DHT22;8261;47.678;-122.174;2023-07-22T09:07:27;16.60;99.90
16305;DHT22;8261;47.678;-122.174;2023-07-22T09:09:58;16.60;99.90
16305;DHT22;8261;47.678;-122.174;2023-07-22T09:12:31;16.60;99.90
16305;DHT22;8261;47.678;-122.174;2023-07-22T09:15:12;16.50;99.90
16305;DHT22;8261;47.678;-122.174;2023-07-22T09:17:43;16.60;99.90
16305;DHT22;8261;47.678;-122.174;2023-07-22T09:20:15;16.50;99.90
16305;DHT22;8261;47.678;-122.174;2023-07-22T09:22:46;16.50;99.90
16305;DHT22;8261;47.678;-122.174;2023-07-22T09:25:34;16.50;99.90
16305;DHT22;8261;47.678;-122.174;2023-07-22T09:28:05;16.50;99.90
16305;DHT22;8261;47.678;-122.174;2023-07-22T09:30:39;16.50;99.90
16305;DHT22;8261;47.678;-122.174;2023-07-22T09:33:20;16.50;99.90
16305;DHT22;8261;47.678;-122.174;2023-07-22T09:35:55;16.40;99.90
16305;DHT22;8261;47.678;-122.174;2023-07-22T09:38:26;16.40;99.90
16305;DHT22;8261;47.678;-122.174;2023-07-22T09:40:57;16.30;99.90
16305;DHT22;8261;47.678;-122.174;2023-07-22T09:43:29;16.30;99.90
16305;DHT22;8261;47.678;-122.174;2023-07-22T09:46:08;16.20;99.90
16305;DHT22;8261;47.678;-122.174;2023-07-22T09:48:43;16.20;99.90
16305;DHT22;8261;47.678;-122.174;2023-07-22T09:51:15;16.30;99.90
16305;DHT22;8261;47.678;-122.174;2023-07-22T09:53:59;16.30;99.90
16305;DHT22;8261;47.678;-122.174;2023-07-22T09:56:30;16.20;99.90
16305;DHT22;8261;47.678;-122.174;2023-07-22T09:59:04;16.20;99.90
16305;DHT22;8261;47.678;-122.174;2023-07-22T10:01:38;16.20;99.90
16305;DHT22;8261;47.678;-122.174;2023-07-22T10:04:11;16.10;99.90
16305;DHT22;8261;47.678;-122.174;2023-07-22T10:06:43;16.00;99.90
16305;DHT22;8261;47.678;-122.174;2023-07-22T10:09:14;16.00;99.90
16305;DHT22;8261;47.678;-122.174;2023-07-22T10:11:45;15.80;99.90
16305;DHT22;8261;47.678;-122.174;2023-07-22T10:14:16;15.80;99.90
16305;DHT22;8261;47.678;-122.174;2023-07-22T10:16:50;15.70;99.90
16305;DHT22;8261;47.678;-122.174;2023-07-22T10:19:22;15.70;99.90
16305;DHT22;8261;47.678;-122.174;2023-07-22T10:21:54;15.80;99.90
16305;DHT22;8261;47.678;-122.174;2023-07-22T10:24:25;15.70;99.90
16305;DHT22;8261;47.678;-122.174;2023-07-22T10:26:56;15.70;99.90
16305;DHT22;8261;47.678;-122.174;2023-07-22T10:29:27;15.60;99.90
16305;DHT22;8261;47.678;-122.174;2023-07-22T10:32:00;15.70;99.90
16305;DHT22;8261;47.678;-122.174;2023-07-22T10:34:33;15.70;99.90
16305;DHT22;8261;47.678;-122.174;2023-07-22T10:37:04;15.70;99.90
16305;DHT22;8261;47.678;-122.174;2023-07-22T10:39:35;15.70;99.90
16305;DHT22;8261;47.678;-122.174;2023-07-22T10:42:06;15.70;99.90
16305;DHT22;8261;47.678;-122.174;2023-07-22T10:44:37;15.70;99.90
16305;DHT22;8261;47.678;-122.174;2023-07-22T10:47:10;15.60;99.90
16305;DHT22;8261;47.678;-122.174;2023-07-22T10:49:46;15.50;99.90
16305;DHT22;8261;47.678;-122.174;2023-07-22T10:52:38;15.40;99.90
16305;DHT22;8261;47.678;-122.174;2023-07-22T10:55:17;15.40;99.90
16305;DHT22;8261;47.678;-122.174;2023-07-22T10:57:53;15.40;99.90
16305;DHT22;8261;47.678;-122.174;2023-07-22T11:00:29;15.30;99.90
16305;DHT22;8261;47.678;-122.174;2023-07-22T11:03:12;15.30;99.90
16305;DHT22;8261;47.678;-122.174;2023-07-22T11:05:50;15.20;99.90
16305;DHT22;8261;47.678;-122.174;2023-07-22T11:08:45;15.20;99.90
16305;DHT22;8261;47.678;-122.174;2023-07-22T11:11:19;15.10;99.90
16305;DHT22;8261;47.678;-122.174;2023-07-22T11:13:51;15.10;99.90
16305;DHT22;8261;47.678;-122.174;2023-07-22T11:16:22;15.10;99.90
16305;DHT22;8261;47.678;-122.174;2023-07-22T11:18:55;15.10;99.90
16305;DHT22;8261;47.678;-122.174;2023-07-22T11:21:26;15.10;99.90
16305;DHT22;8261;47.678;-122.174;2023-07-22T11:23:56;15.10;99.90
16305;DHT22;8261;47.678;-122.174;2023-07-22T11:26:27;15.10;99.90
16305;DHT22;8261;47.678;-122.174;2023-07-22T11:28:59;15.10;99.90
16305;DHT22;8261;47.678;-122.174;2023-07-22T11:31:33;15.00;99.90
16305;DHT22;8261;47.678;-122.174;2023-07-22T11:34:07;15.00;99.90
16305;DHT22;8261;47.678;-122.174;2023-07-22T11:36:38;15.00;99.90
16305;DHT22;8261;47.678;-122.174;2023-07-22T11:39:09;15.00;99.90
16305;DHT22;8261;47.678;-122.174;2023-07-22T11:41:41;15.00;99.90
16305;DHT22;8261;47.678;-122.174;2023-07-22T11:44:14;15.00;99.90
16305;DHT22;8261;47.678;-122.174;2023-07-22T11:46:56;15.10;99.90
16305;DHT22;8261;47.678;-122.174;2023-07-22T11:49:29;15.00;99.90
16305;DHT22;8261;47.678;-122.174;2023-07-22T11:52:02;15.00;99.90
16305;DHT22;8261;47.678;-122.174;2023-07-22T11:54:34;15.00;99.90
16305;DHT22;8261;47.678;-122.174;2023-07-22T11:57:12;14.90;99.90
16305;DHT22;8261;47.678;-122.174;2023-07-22T11:59:44;15.00;99.90
16305;DHT22;8261;47.678;-122.174;2023-07-22T12:02:18;15.00;99.90
16305;DHT22;8261;47.678;-122.174;2023-07-22T12:04:56;15.00;99.90
16305;DHT22;8261;47.678;-122.174;2023-07-22T12:07:27;15.00;99.90
16305;DHT22;8261;47.678;-122.174;2023-07-22T12:10:00;15.00;99.90
16305;DHT22;8261;47.678;-122.174;2023-07-22T12:12:35;15.10;99.90
16305;DHT22;8261;47.678;-122.174;2023-07-22T12:15:10;15.10;99.90
16305;DHT22;8261;47.678;-122.174;2023-07-22T12:17:45;15.10;99.90
16305;DHT22;8261;47.678;-122.174;2023-07-22T12:20:18;15.20;99.90
16305;DHT22;8261;47.678;-122.174;2023-07-22T12:22:49;15.20;99.90
16305;DHT22;8261;47.678;-122.174;2023-07-22T12:25:20;15.20;99.90
16305;DHT22;8261;47.678;-122.174;2023-07-22T12:27:51;15.30;99.90
16305;DHT22;8261;47.678;-122.174;2023-07-22T12:30:22;15.30;99.90
16305;DHT22;8261;47.678;-122.174;2023-07-22T12:32:55;15.30;99.90
16305;DHT22;8261;47.678;-122.174;2023-07-22T12:35:28;15.30;99.90
16305;DHT22;8261;47.678;-122.174;2023-07-22T12:37:58;15.20;99.90
16305;DHT22;8261;47.678;-122.174;2023-07-22T12:40:29;15.20;99.90
16305;DHT22;8261;47.678;-122.174;2023-07-22T12:43:00;15.10;99.90
16305;DHT22;8261;47.678;-122.174;2023-07-22T12:45:31;15.10;99.90
16305;DHT22;8261;47.678;-122.174;2023-07-22T12:48:02;15.10;99.90
16305;DHT22;8261;47.678;-122.174;2023-07-22T12:50:35;15.00;99.90
16305;DHT22;8261;47.678;-122.174;2023-07-22T12:53:06;14.90;99.90
16305;DHT22;8261;47.678;-122.174;2023-07-22T12:55:37;14.90;99.90
16305;DHT22;8261;47.678;-122.174;2023-07-22T12:58:08;15.00;99.90
16305;DHT22;8261;47.678;-122.174;2023-07-22T13:00:39;14.90;99.90
16305;DHT22;8261;47.678;-122.174;2023-07-22T13:03:09;14.90;99.90
16305;DHT22;8261;47.678;-122.174;2023-07-22T13:05:42;14.90;99.90
16305;DHT22;8261;47.678;-122.174;2023-07-22T13:08:16;14.90;99.90
16305;DHT22;8261;47.678;-122.174;2023-07-22T13:10:47;14.90;99.90
16305;DHT22;8261;47.678;-122.174;2023-07-22T13:13:18;14.90;99.90
16305;DHT22;8261;47.678;-122.174;2023-07-22T13:15:48;15.00;99.90
16305;DHT22;8261;47.678;-122.174;2023-07-22T13:18:19;15.00;99.90
16305;DHT22;8261;47.678;-122.174;2023-07-22T13:20:52;15.00;99.90
16305;DHT22;8261;47.678;-122.174;2023-07-22T13:23:22;15.00;99.90
16305;DHT22;8261;47.678;-122.174;2023-07-22T13:25:53;15.10;99.90
16305;DHT22;8261;47.678;-122.174;2023-07-22T13:28:24;15.20;99.90
16305;DHT22;8261;47.678;-122.174;2023-07-22T13:30:55;15.10;99.90
16305;DHT22;8261;47.678;-122.174;2023-07-22T13:33:26;15.10;99.90
16305;DHT22;8261;47.678;-122.174;2023-07-22T13:35:59;15.00;99.90
16305;DHT22;8261;47.678;-122.174;2023-07-22T13:38:29;15.10;99.90
16305;DHT22;8261;47.678;-122.174;2023-07-22T13:41:00;15.10;99.90
16305;DHT22;8261;47.678;-122.174;2023-07-22T13:43:31;15.10;99.90
16305;DHT22;8261;47.678;-122.174;2023-07-22T13:46:02;15.10;99.90
16305;DHT22;8261;47.678;-122.174;2023-07-22T13:48:32;15.20;99.90
16305;DHT22;8261;47.678;-122.174;2023-07-22T13:51:05;15.30;99.90
16305;DHT22;8261;47.678;-122.174;2023-07-22T13:53:36;15.50;99.90
16305;DHT22;8261;47.678;-122.174;2023-07-22T13:56:06;15.60;99.90
16305;DHT22;8261;47.678;-122.174;2023-07-22T13:58:37;15.70;99.90
16305;DHT22;8261;47.678;-122.174;2023-07-22T14:01:08;15.70;99.90
16305;DHT22;8261;47.678;-122.174;2023-07-22T14:03:39;15.80;99.90
16305;DHT22;8261;47.678;-122.174;2023-07-22T14:06:11;15.80;99.90
16305;DHT22;8261;47.678;-122.174;2023-07-22T14:08:42;15.80;99.90
16305;DHT22;8261;47.678;-122.174;2023-07-22T14:11:13;15.90;99.90
16305;DHT22;8261;47.678;-122.174;2023-07-22T14:13:43;16.00;99.90
16305;DHT22;8261;47.678;-122.174;2023-07-22T14:16:14;16.10;99.90
16305;DHT22;8261;47.678;-122.174;2023-07-22T14:18:50;16.10;99.90
16305;DHT22;8261;47.678;-122.174;2023-07-22T14:21:23;16.30;99.90
16305;DHT22;8261;47.678;-122.174;2023-07-22T14:23:54;16.40;99.90
16305;DHT22;8261;47.678;-122.174;2023-07-22T14:26:25;16.50;99.90
16305;DHT22;8261;47.678;-122.174;2023-07-22T14:28:55;16.60;99.90
16305;DHT22;8261;47.678;-122.174;2023-07-22T14:31:26;16.60;99.90
16305;DHT22;8261;47.678;-122.174;2023-07-22T14:33:58;16.60;99.90
16305;DHT22;8261;47.678;-122.174;2023-07-22T14:36:30;16.80;99.90
16305;DHT22;8261;47.678;-122.174;2023-07-22T14:39:01;16.80;99.90
16305;DHT22;8261;47.678;-122.174;2023-07-22T14:41:33;16.70;99.90
16305;DHT22;8261;47.678;-122.174;2023-07-22T14:44:04;16.50;99.90
16305;DHT22;8261;47.678;-122.174;2023-07-22T14:46:35;16.40;99.90
16305;DHT22;8261;47.678;-122.174;2023-07-22T14:49:06;16.30;99.90
16305;DHT22;8261;47.678;-122.174;2023-07-22T14:51:39;16.40;99.90
16305;DHT22;8261;47.678;-122.174;2023-07-22T14:54:10;16.60;99.90
16305;DHT22;8261;47.678;-122.174;2023-07-22T14:56:41;16.40;99.90
16305;DHT22;8261;47.678;-122.174;2023-07-22T14:59:14;16.60;99.90
16305;DHT22;8261;47.678;-122.174;2023-07-22T15:01:45;17.00;99.90
16305;DHT22;8261;47.678;-122.174;2023-07-22T15:04:16;16.90;99.90
16305;DHT22;8261;47.678;-122.174;2023-07-22T15:06:49;17.30;99.90
16305;DHT22;8261;47.678;-122.174;2023-07-22T15:09:20;17.70;99.90
16305;DHT22;8261;47.678;-122.174;2023-07-22T15:11:50;18.30;99.90
16305;DHT22;8261;47.678;-122.174;2023-07-22T15:14:21;18.50;99.90
16305;DHT22;8261;47.678;-122.174;2023-07-22T15:16:52;18.80;99.90
16305;DHT22;8261;47.678;-122.174;2023-07-22T15:19:23;18.70;99.90
16305;DHT22;8261;47.678;-122.174;2023-07-22T15:21:55;18.20;99.90
16305;DHT22;8261;47.678;-122.174;2023-07-22T15:24:26;18.40;99.90
16305;DHT22;8261;47.678;-122.174;2023-07-22T15:26:57;18.10;99.90
16305;DHT22;8261;47.678;-122.174;2023-07-22T15:29:28;18.00;99.90
16305;DHT22;8261;47.678;-122.174;2023-07-22T15:31:58;18.40;99.90